Weather observations for the past three days for
Jerome County Airport
Imperial (Metric)
Date Time (mdt) Wind (mph) Vis. (mi.) Weather Sky Cond. Temperature (ºF) Relative Humidity Wind Chill (°F) Heat Index (°F) Pressure Precipitation (in)
Air Dwpt 6 hour altimeter (in) sea level (mb) 1 hr 3 hr 6 hr
Max. Min.
05 14:53 W 5 10.00 Fair CLR 68 28 22% 29.82 1006.9
05 13:53 S 3 G 18 10.00 Fair CLR 68 28.9 23% 29.83 1007.2
05 12:53 SE 18 G 28 10.00 Fair CLR 66 28.9 25% 29.84 1007.6
05 11:53 E 18 G 32 10.00 Fair CLR 64.9 27 66 52 24% 29.85 1007.8
05 10:53 E 24 G 36 10.00 Fair and Breezy CLR 63 30 29% 29.84 1007.5
05 09:53 E 29 G 38 9.00 A Few Clouds and Windy FEW090 FEW120 59 28.9 32% 29.84 1007.4
05 08:53 E 23 G 38 10.00 Overcast and Breezy OVC100 55 30 38% 29.84 1007.7
05 07:53 E 24 G 37 10.00 Overcast and Breezy OVC100 53.1 30 41% 29.82 1007.0
05 06:53 E 22 G 31 10.00 Partly Cloudy and Breezy SCT120 52 28.9 41% 29.8 1006.2
05 05:53 E 17 G 26 10.00 Overcast FEW065 BKN075 OVC110 54 30 61 54 40% 29.79 1005.5
05 04:53 E 23 G 35 10.00 Overcast and Breezy BKN095 OVC110 55 30.9 40% 29.76 1004.5
05 03:53 E 22 G 31 10.00 Partly Cloudy and Breezy SCT110 55.9 32 40% 29.75 1004.1
05 02:53 E 15 10.00 Fair CLR 57 32 39% 29.75 1004.0
05 01:53 E 13 10.00 Fair CLR 59 32 36% 29.74 1003.7
05 00:53 SE 13 10.00 Mostly Cloudy BKN120 60.1 30 32% 29.72 1003.1
04 23:53 SE 8 10.00 Partly Cloudy SCT120 61 28.9 77 60.1 30% 29.7 1002.6
04 22:53 S 6 10.00 Fair CLR 62.1 27 26% 29.69 1002.4
04 21:53 W 3 10.00 Fair CLR 66.9 25 20% 29.69 1002.5
04 20:53 W 5 10.00 Fair CLR 69.1 27 21% 29.69 1002.4
04 19:53 W 10 10.00 Fair CLR 73 23 15% 29.68 1001.9
04 18:53 W 13 10.00 Fair CLR 75.9 26.1 16% 76 29.68 1001.9
04 17:53 W 12 G 20 10.00 Fair CLR 77 26.1 79 66 15% 76 29.68 1001.9
04 16:53 W 6 G 20 10.00 Fair CLR 77 28 16% 77 29.69 1002.3
04 15:53 W 8 10.00 Fair CLR 77 30.9 18% 77 29.72 1003.1
04 14:53 W 8 10.00 Fair CLR 75 35.1 23% 76 29.74 1004.0
04 13:53 NW 5 10.00 Fair CLR 72 39 30% 29.77 1004.8
04 12:53 SW 9 10.00 Fair CLR 70 37 30% 29.78 1005.7
04 11:53 Vrbl 7 10.00 Fair CLR 66 35.1 66.9 48.9 32% 29.8 1006.3
04 10:53 SW 6 10.00 Fair CLR 63 36 37% 29.81 1006.9
04 09:53 SW 7 10.00 Fair CLR 59 36 42% 29.82 1007.1
04 08:53 S 5 10.00 Fair CLR 55 34 45% 29.82 1007.2
04 07:53 S 5 10.00 Fair CLR 53.1 32 45% 29.82 1006.8
04 06:53 S 5 10.00 Fair CLR 50 30.9 48% 49 29.8 1006.1
04 05:53 S 5 10.00 Fair CLR 52 30 60.1 50 43% 29.8 1005.9
04 04:53 SE 3 10.00 Fair CLR 52 30 43% 29.8 1006.0
04 03:53 S 6 10.00 Fair CLR 52 30 43% 29.79 1005.7
04 02:53 S 6 10.00 Fair CLR 55 30 38% 29.8 1005.6
04 01:53 SE 7 10.00 Fair CLR 55 32 42% 29.8 1005.9
04 00:53 SE 7 10.00 Fair CLR 53.1 30.9 43% 29.8 1006.2
03 23:53 NW 5 10.00 Fair CLR 59 30 78.1 54 33% 29.8 1006.1
03 22:53 N 7 10.00 Fair CLR 57 30.9 37% 29.81 1006.5
03 21:53 NW 5 10.00 Fair CLR 63 28.9 28% 29.8 1006.3
03 20:53 NW 7 10.00 Fair CLR 66 34 30% 29.79 1006.2
03 19:53 N 7 10.00 Fair CLR 73 32 22% 29.8 1006.1
03 18:53 N 3 10.00 Fair CLR 77 19 11% 76 29.81 1006.9
03 17:53 NW 12 10.00 Fair CLR 78.1 19.9 79 69.1 11% 77 29.82 1007.0
03 16:53 W 9 10.00 Fair CLR 78.1 18 10% 77 29.84 1007.6
03 15:53 Calm 10.00 Fair CLR 77 21 12% 76 29.86 1008.5
03 14:53 N 7 10.00 Fair CLR 78.1 21 12% 77 29.9 1009.1
03 13:53 N 3 10.00 Fair CLR 75 23 14% 75 29.92 1010.1
03 12:53 Calm 10.00 Fair CLR 72 23 16% 29.95 1011.1
03 11:53 E 3 10.00 Fair CLR 70 25 70 42.1 18% 29.97 1011.9
03 10:53 Vrbl 3 10.00 Fair CLR 66.9 21 17% 29.99 1013.0
03 09:53 Vrbl 3 10.00 Fair CLR 63 24.1 23% 30 1013.7
03 08:53 NE 9 10.00 Fair CLR 55.9 30 37% 30 1014.2
03 07:53 E 8 10.00 Fair CLR 53.1 26.1 35% 30 1013.8
03 06:53 E 6 10.00 Fair CLR 43 27 53% 40 29.99 1013.8
03 05:53 E 9 10.00 Fair CLR 46.9 21.9 60.1 44.1 37% 43 29.97 1012.5
03 04:53 E 13 10.00 Fair CLR 48 24.1 39% 43 29.98 1012.5
03 03:53 E 10 10.00 Fair CLR 46 26.1 46% 42 29.98 1012.8
03 02:53 Calm 10.00 Fair CLR 54 21 28% 29.98 1012.2
03 01:53 SE 6 10.00 Fair CLR 57 19 23% 29.98 1012.3
03 00:53 SE 8 10.00 Fair CLR 57.9 23 26% 29.98 1012.1
02 23:53 E 10 10.00 Fair CLR 57.9 19.9 75 54 23% 29.97 1011.9
02 22:53 E 13 10.00 Fair CLR 55 21.9 28% 29.97 1012.3
02 21:53 NE 13 10.00 Fair CLR 54 26.1 34% 29.96 1012.6
02 20:53 NE 12 10.00 Fair CLR 55.9 28 34% 29.95 1012.6
02 19:53 NE 10 10.00 Fair CLR 62.1 33.1 34% 29.95 1012.5
02 18:53 NE 12 10.00 Fair CLR 66 32 28% 29.95 1013.1
02 17:53 NE 8 10.00 Fair CLR 75 24.1 75.9 69.1 15% 75 29.96 1012.3
02 16:53 N 9 10.00 Fair CLR 75 23 14% 75 29.97 1012.9
02 15:53 NE 3 10.00 Fair CLR 73.9 19.9 13% 29.99 1013.6
Date Time (mdt) Wind (mph) Vis. (mi.) Weather Sky Cond. Air Dwpt Max. Min. Relative Humidity Wind Chill (°F) Heat Index (°F) altimeter (in) sea level (mb) 1 hr 3 hr 6 hr
6 hour
Temperature (ºF) Pressure Precipitation (in)